createdAt,value
2022-08-25T00:01:59.343Z,27.10
2022-08-25T00:04:30.240Z,27.00
2022-08-25T00:07:02.960Z,27.00
2022-08-25T00:09:33.633Z,26.90
2022-08-25T00:12:03.341Z,26.80
2022-08-25T00:14:35.864Z,26.80
2022-08-25T00:17:07.375Z,26.80
2022-08-25T00:19:38.844Z,26.80
2022-08-25T00:22:08.835Z,26.70
2022-08-25T00:24:37.385Z,26.70
2022-08-25T00:27:06.428Z,26.60
2022-08-25T00:29:38.066Z,26.60
2022-08-25T00:32:08.247Z,26.50
2022-08-25T00:34:39.020Z,26.50
2022-08-25T00:37:10.303Z,26.50
2022-08-25T00:39:40.420Z,26.40
2022-08-25T00:42:11.864Z,26.40
2022-08-25T00:44:45.102Z,26.30
2022-08-25T00:47:15.193Z,26.30
2022-08-25T00:49:48.750Z,26.30
2022-08-25T00:52:22.021Z,26.20
2022-08-25T00:54:57.725Z,26.30
2022-08-25T00:57:34.601Z,26.20
2022-08-25T01:00:06.959Z,26.20
2022-08-25T01:02:36.711Z,26.20
2022-08-25T01:05:05.878Z,26.10
2022-08-25T01:07:34.514Z,26.10
2022-08-25T01:10:03.268Z,26.00
2022-08-25T01:12:31.607Z,26.00
2022-08-25T01:15:01.569Z,26.00
2022-08-25T01:17:37.046Z,25.90
2022-08-25T01:20:06.429Z,25.80
2022-08-25T01:22:38.083Z,25.80
2022-08-25T01:25:23.203Z,25.70
2022-08-25T01:27:52.242Z,25.70
2022-08-25T01:30:22.539Z,25.70
2022-08-25T01:32:50.869Z,25.70
2022-08-25T01:35:19.664Z,25.60
2022-08-25T01:37:49.833Z,25.60
2022-08-25T01:40:18.402Z,25.60
2022-08-25T01:43:03.182Z,25.50
2022-08-25T01:45:31.722Z,25.50
2022-08-25T01:48:00.152Z,25.50
2022-08-25T01:50:29.159Z,25.50
2022-08-25T01:53:04.777Z,25.50
2022-08-25T01:55:51.597Z,25.40
2022-08-25T01:58:21.227Z,25.30
2022-08-25T02:00:51.265Z,25.30
2022-08-25T02:03:19.924Z,25.30
2022-08-25T02:05:49.025Z,25.20
2022-08-25T02:08:18.923Z,25.20
2022-08-25T02:10:48.240Z,25.20
2022-08-25T02:13:17.590Z,25.20
2022-08-25T02:15:50.871Z,25.10
2022-08-25T02:18:20.531Z,25.10
2022-08-25T02:20:49.462Z,25.10
2022-08-25T02:23:19.444Z,25.10
2022-08-25T02:25:48.055Z,25.10
2022-08-25T02:28:16.814Z,25.00
2022-08-25T02:30:45.939Z,25.00
2022-08-25T02:33:14.271Z,24.90
2022-08-25T02:35:42.583Z,24.90
2022-08-25T02:38:10.895Z,24.90
2022-08-25T02:40:40.760Z,24.80
2022-08-25T02:43:09.131Z,24.80
2022-08-25T02:48:06.505Z,24.70
2022-08-25T02:50:35.050Z,24.70
2022-08-25T02:53:03.400Z,24.60
2022-08-25T02:55:31.834Z,24.60
2022-08-25T02:58:04.447Z,24.60
2022-08-25T03:00:33.430Z,24.50
2022-08-25T03:03:02.290Z,24.50
2022-08-25T03:05:30.634Z,24.50
2022-08-25T03:07:59.077Z,24.40
2022-08-25T03:10:28.166Z,24.40
2022-08-25T03:12:56.464Z,24.40
2022-08-25T03:15:27.839Z,24.30
2022-08-25T03:17:59.104Z,24.30
2022-08-25T03:20:29.785Z,24.30
2022-08-25T03:22:58.198Z,24.30
2022-08-25T03:25:43.892Z,24.20
2022-08-25T03:28:12.198Z,24.10
2022-08-25T03:30:42.215Z,24.10
2022-08-25T03:33:10.585Z,24.10
2022-08-25T03:35:39.176Z,24.10
2022-08-25T03:38:07.627Z,24.00
2022-08-25T03:40:36.074Z,24.00
2022-08-25T03:43:04.392Z,24.00
2022-08-25T03:45:32.885Z,24.00
2022-08-25T03:48:02.627Z,24.10
2022-08-25T03:50:31.237Z,24.00
2022-08-25T03:52:59.519Z,24.10
2022-08-25T03:55:28.275Z,24.00
2022-08-25T03:57:58.171Z,24.00
2022-08-25T04:00:26.511Z,23.90
2022-08-25T04:02:54.822Z,23.90
2022-08-25T04:05:24.539Z,23.90
2022-08-25T04:07:55.895Z,23.90
2022-08-25T04:10:24.310Z,23.80
2022-08-25T04:12:52.626Z,23.80
2022-08-25T04:15:21.178Z,23.80
2022-08-25T04:17:51.853Z,23.80
2022-08-25T04:20:22.216Z,23.80
2022-08-25T04:22:51.880Z,23.80
2022-08-25T04:25:20.197Z,23.80
2022-08-25T04:27:48.471Z,23.70
2022-08-25T04:30:17.242Z,23.70
2022-08-25T04:32:45.665Z,23.70
2022-08-25T04:35:13.992Z,23.60
2022-08-25T06:17:50.327Z,26.80
2022-08-25T06:20:25.379Z,26.80
2022-08-25T06:22:54.961Z,27.40
2022-08-25T06:25:26.483Z,28.00
2022-08-25T06:27:55.496Z,28.50
2022-08-25T06:30:28.929Z,28.30
2022-08-25T06:32:57.859Z,27.80
2022-08-25T06:35:28.204Z,28.00
2022-08-25T06:37:56.495Z,28.20
2022-08-25T06:40:26.146Z,27.40
2022-08-25T06:42:54.629Z,27.50
2022-08-25T06:45:23.162Z,28.00
2022-08-25T06:47:52.853Z,27.90
2022-08-25T06:50:21.677Z,27.70
2022-08-25T06:52:51.787Z,27.70
2022-08-25T06:55:20.234Z,28.40
2022-08-25T06:57:48.606Z,28.50
2022-08-25T07:00:17.632Z,28.90
2022-08-25T07:02:47.088Z,28.90
2022-08-25T07:05:26.944Z,28.40
2022-08-25T07:08:03.999Z,28.10
2022-08-25T07:10:32.506Z,28.80
2022-08-25T07:13:02.265Z,28.50
2022-08-25T07:15:30.591Z,28.60
2022-08-25T07:17:59.497Z,29.00
2022-08-25T07:20:29.321Z,29.10
2022-08-25T07:22:59.033Z,29.20
2022-08-25T07:25:28.843Z,29.50
2022-08-25T07:27:58.939Z,28.30
2022-08-25T07:30:28.344Z,28.10
2022-08-25T07:32:56.762Z,28.80
2022-08-25T07:35:26.277Z,29.00
2022-08-25T07:37:57.156Z,28.80
2022-08-25T07:40:30.398Z,29.10
2022-08-25T07:43:02.584Z,29.40
2022-08-25T07:45:34.020Z,29.20
2022-08-25T07:48:05.390Z,29.80
2022-08-25T07:50:34.900Z,29.60
2022-08-25T07:53:03.660Z,29.10
2022-08-25T07:55:36.496Z,29.10
2022-08-25T07:58:05.966Z,29.40
2022-08-25T08:00:36.989Z,29.70
2022-08-25T08:03:08.216Z,29.90
2022-08-25T08:05:42.700Z,29.80
